AirNav   Air Wisconsin Up To $57,000 Bonus
 
 1505 users online  

3VS Roy Otten Memorial Airfield
Versailles, Missouri, USA

GOING TO VERSAILLES?


FAA INFORMATION EFFECTIVE 15 JULY 2021

Location

FAA Identifier: 3VS
Lat/Long: 38-25-41.7800N 092-52-30.9500W
38-25.696333N 092-52.515833W
38.4282722,-92.8752639
(estimated)
Elevation: 1027 ft. / 313 m (estimated)
Variation: 04E (1985)
From city: 2 miles W of VERSAILLES, MO
Time zone: UTC -5 (UTC -6 during Standard Time)
Zip code: 65084

Airport Operations

Airport use: Open to the public
Activation date: 03/1971
Control tower: no
ARTCC: KANSAS CITY CENTER
FSS: COLUMBIA FLIGHT SERVICE STATION
NOTAMs facility: COU (NOTAM-D service available)
Attendance: 0800-1700
Wind indicator: lighted
Segmented circle: yes
Lights: ACTVT LIRL RY 07/25 - CTAF, CLICK 3 TIMES.
Beacon: white-green (lighted land airport)
Operates sunset to sunrise.

Airport Communications

CTAF/UNICOM: 122.8

Nearby radio navigation aids

VOR radial/distance  VOR name  Freq  Var
SHYr331/26.6SUNSHINE VOR/DME108.4000E
COUr233/38.4COLUMBIA VOR/DME110.2000E

Airport Services

Fuel available: 100LL
100LL:FUEL AVBL 24 HRS SELF-SVC.
Parking: hangars and tiedowns
Airframe service: MAJOR
Powerplant service: MAJOR
Bottled oxygen: NONE
Bulk oxygen: NONE

Runway Information

Runway 7/25

Dimensions: 2805 x 39 ft. / 855 x 12 m
WIDTH VARIANCE 39-40 FT.
Surface: asphalt, in good condition
Runway edge lights: non-standard
NSTD LIRL; THLD LGTS SPACED INCORRECTLY; THLD & EDGE LGTS PLACED 11-18 FT FM RY EDGE.
RUNWAY 7  RUNWAY 25
Latitude: 38-25.627500N38-25.765167N
Longitude: 092-52.796333W092-52.235333W
Elevation: 1027.0 ft.1003.0 ft.
Traffic pattern: leftright
Markings: basic, in good conditionbasic, in good condition
Obstructions: 63 ft. trees, 631 ft. from runway, 87 ft. right of centerline, 6:1 slope to clear45 ft. trees, 800 ft. from runway, 180 ft. left and right of centerline, 13:1 slope to clear
8 FT ROAD 105-200 FT FM RWY END 40-125L;

Helipad H1

Dimensions: 50 x 50 ft. / 15 x 15 m
Surface: concrete, in good condition
Runway edge lights: PERI
Latitude: 38-25.714667N
Longitude: 092-52.282167W
Elevation: 1010.0 ft.
Traffic pattern: leftleft
Markings: basic, in good condition

Airport Ownership and Management from official FAA records

Ownership: Publicly-owned
Owner: CITY OF VERSAILLES
104 N. FISHER ST.
VERSAILLES, MO 65084
Phone 573-378-4634
Manager: BILL FORESTER
10998 HWY 52
VERSAILLES, MO 65084
Phone (573) 836-0506
AMGR CELL: 573-836-0506

Airport Operational Statistics

Aircraft based on the field: 26
Single engine airplanes: 24
Multi engine airplanes: 1
Helicopters: 1
    
Aircraft operations: avg 22/day *
49% transient general aviation
49% local general aviation
2% military
* for 12-month period ending 31 December 2018

Additional Remarks

CROP DUSTING ACFT AND HELICOPTERS; AND ULTRALIGHT ACTIVITY ON AND INVOF ARPT.
DEER & WILDLIFE ON & INVOF ARPT.
RY 07/25 LINE OF SIGHT OBSTRUCTED BY GRADE CHANGE IN RY.
NTSD RY SAFETY AREA BYND EACH RY END; INCORRECT TERRAIN GRADES, LARGE DROP OFF AT RY 07 END, ROAD AT RY 25 END.
FOR CD CTC WHITEMAN APCH AT 660-687-3132. WHEN WHITEMAN APCH IS CLSD, CTC KANSAS CITY ARTCC AT 913-254-8508.

Instrument Procedures

There are no published instrument procedures at 3VS.

Some nearby airports with instrument procedures:

H79 - Eldon Model Airpark (15 nm E)
K15 - Grand Glaize-Osage Beach Airport (21 nm SE)
KDMO - Sedalia Regional Airport (22 nm NW)
KRAW - Warsaw Municipal Airport (23 nm W)
KAIZ - Lee C Fine Memorial Airport (25 nm SE)
 
Loc | Ops | Rwys | IFR | FBO | Links
Com | Nav | Svcs | Stats | Notes
Area around 3VS (Roy Otten Memorial Airfield)
 
Road maps at: MapQuest Bing Google
 
Aerial photo
WARNING: Photo may not be current or correct
Aerial photo of 3VS (Roy Otten Memorial Airfield)
Do you have a better or more recent aerial photo of Roy Otten Memorial Airfield that you would like to share? If so, please send us your photo.

 
Sectional chart

 
Airport distance calculator
Flying to Roy Otten Memorial Airfield? Find the distance to fly.

From to 3VS

Sunrise and sunset
Times for 28-Jul-2021
 Local
(UTC-5)
 Zulu
(UTC)
Morning civil twilight05:4110:41
Sunrise06:1111:11
Sunset20:2501:25
Evening civil twilight20:5501:55

Current date and time
Zulu (UTC)  28-Jul-2021 15:25:01
Local (UTC-5)  28-Jul-2021 10:25:01
 
METAR
KDMO 
22nm NW 
281453Z AUTO VRB03KT 10SM CLR 29/24 A3009 RMK AO2 SLP181 T02940244 53004
KRAW 
23nm W 
280615Z AUTO 13004KT 10SM CLR 25/23 A3008 RMK AO2 T02450225
KAIZ 
25nm SE 
281456Z AUTO 00000KT 10SM CLR 29/25 A3010 RMK AO2 SLP182 T02940250 53000
KOZS 
29nm S 
281455Z AUTO 00000KT 10SM CLR 30/23 A3010 RMK AO2
KSZL 
35nm NW 
281456Z 00000KT 6SM HZ CLR 30/25 A3004 RMK AO2A SLP166 T02980246 53003 $
KJEF 
36nm E 
281453Z 00000KT 8SM CLR 29/23 A3007 RMK AO2 SLP168 T02890228 55000
KGLY 
38nm W 
281455Z AUTO 22003KT 7SM 29/26 A3007 RMK AO2 TSNO
KCOU 
39nm NE 
281454Z VRB03KT 10SM CLR 29/24 A3009 RMK AO2 SLP179 T02890239 53002 $
KMHL 
43nm N 
281455Z AUTO 24003KT 10SM CLR 28/25 A3010 RMK AO2
TAF
KSZL 
35nm NW 
281100Z 2811/2917 15006KT 9999 SKC QNH3004INS BECMG 2814/2815 21006KT 9000 HZ FEW035 QNH2999INS BECMG 2822/2823 25012KT 9999 NSW SKC QNH2997INS TX36/2822Z TN22/2811Z
KJEF 
36nm E 
281120Z 2812/2912 21003KT P6SM FEW250
KCOU 
39nm NE 
281120Z 2812/2912 21003KT P6SM FEW250
NOTAMs
Click for the latest NOTAMs
NOTAMs are issued by the DoD/FAA and will open in a separate window not controlled by AirNav.

 

 
 

FBO, Fuel Providers, and Aircraft Ground Support

  
 Business Name 
 
 Contact 
 
 Services / Description 
 
Fuel Prices
 
Comments
  
Forester Aviation 573-836-0506
no information available

If you are affiliated with Forester Aviation and would like to show here your services, contact info, web link, logo, and more, click here
100LL
SS $3.50 
 Updated 14-Jun-2020
 
   write
SS=Self service
Update Fuel Prices
 

Would you like to see your business listed on this page?

 If your business provides an interesting product or service to pilots, flight crews, aircraft, or users of the Roy Otten Memorial Airfield, you should consider listing it here.  To start the listing process, click on the button below
 
Add a business
 

Other Pages about Roy Otten Memorial Airfield

Update a link
 
Copyright © AirNav, LLC. All rights reserved. Privacy Policy  Contact